sensor_id;sensor_type;location;lat;lon;timestamp;P1;durP1;ratioP1;P2;durP2;ratioP2
32106;SDS011;18622;51.998;10.440;2023-11-19T04:32:41;0.55;;;0.20;;
32106;SDS011;18622;51.998;10.440;2023-11-19T04:35:10;0.67;;;0.50;;
32106;SDS011;18622;51.998;10.440;2023-11-19T04:37:37;1.13;;;0.30;;
32106;SDS011;18622;51.998;10.440;2023-11-19T04:40:05;0.90;;;0.40;;
32106;SDS011;18622;51.998;10.440;2023-11-19T04:42:33;4.47;;;0.40;;
32106;SDS011;18622;51.998;10.440;2023-11-19T04:45:01;1.40;;;0.63;;
32106;SDS011;18622;51.998;10.440;2023-11-19T04:49:58;2.47;;;0.30;;
32106;SDS011;18622;51.998;10.440;2023-11-19T04:52:26;1.00;;;0.53;;
32106;SDS011;18622;51.998;10.440;2023-11-19T04:54:54;0.63;;;0.53;;
32106;SDS011;18622;51.998;10.440;2023-11-19T04:57:22;1.90;;;0.50;;
32106;SDS011;18622;51.998;10.440;2023-11-19T04:59:50;1.37;;;0.50;;
32106;SDS011;18622;51.998;10.440;2023-11-19T05:02:17;1.40;;;0.50;;
32106;SDS011;18622;51.998;10.440;2023-11-19T05:04:45;0.20;;;0.20;;
32106;SDS011;18622;51.998;10.440;2023-11-19T05:07:15;0.72;;;0.30;;
32106;SDS011;18622;51.998;10.440;2023-11-19T05:09:42;0.30;;;0.30;;
32106;SDS011;18622;51.998;10.440;2023-11-19T05:12:10;0.40;;;0.10;;
32106;SDS011;18622;51.998;10.440;2023-11-19T05:14:38;1.13;;;0.20;;
32106;SDS011;18622;51.998;10.440;2023-11-19T05:17:06;2.20;;;0.30;;
32106;SDS011;18622;51.998;10.440;2023-11-19T05:19:34;0.63;;;0.30;;
32106;SDS011;18622;51.998;10.440;2023-11-19T05:22:01;1.07;;;0.43;;
32106;SDS011;18622;51.998;10.440;2023-11-19T05:24:31;1.13;;;0.30;;
32106;SDS011;18622;51.998;10.440;2023-11-19T05:26:58;1.00;;;0.30;;
32106;SDS011;18622;51.998;10.440;2023-11-19T05:29:26;0.27;;;0.20;;
32106;SDS011;18622;51.998;10.440;2023-11-19T05:31:54;1.20;;;0.50;;
32106;SDS011;18622;51.998;10.440;2023-11-19T05:34:22;1.00;;;0.43;;
32106;SDS011;18622;51.998;10.440;2023-11-19T05:36:50;1.75;;;0.40;;
32106;SDS011;18622;51.998;10.440;2023-11-19T05:39:18;4.83;;;0.60;;
32106;SDS011;18622;51.998;10.440;2023-11-19T05:41:46;0.73;;;0.40;;
32106;SDS011;18622;51.998;10.440;2023-11-19T05:44:14;1.97;;;0.67;;
32106;SDS011;18622;51.998;10.440;2023-11-19T05:46:42;4.07;;;0.60;;
32106;SDS011;18622;51.998;10.440;2023-11-19T05:49:10;3.80;;;0.50;;
32106;SDS011;18622;51.998;10.440;2023-11-19T05:51:39;3.17;;;0.60;;
32106;SDS011;18622;51.998;10.440;2023-11-19T05:54:08;5.87;;;0.83;;
32106;SDS011;18622;51.998;10.440;2023-11-19T05:56:36;8.18;;;1.37;;
32106;SDS011;18622;51.998;10.440;2023-11-19T05:59:04;7.17;;;1.37;;
32106;SDS011;18622;51.998;10.440;2023-11-19T06:01:34;4.08;;;1.10;;
32106;SDS011;18622;51.998;10.440;2023-11-19T06:04:02;3.50;;;0.68;;
32106;SDS011;18622;51.998;10.440;2023-11-19T06:06:30;5.90;;;0.83;;
32106;SDS011;18622;51.998;10.440;2023-11-19T06:08:58;3.77;;;0.87;;
32106;SDS011;18622;51.998;10.440;2023-11-19T06:11:28;5.35;;;1.30;;
32106;SDS011;18622;51.998;10.440;2023-11-19T06:13:55;8.13;;;1.30;;
32106;SDS011;18622;51.998;10.440;2023-11-19T06:16:23;9.20;;;1.20;;
32106;SDS011;18622;51.998;10.440;2023-11-19T06:18:51;7.43;;;1.50;;
32106;SDS011;18622;51.998;10.440;2023-11-19T06:21:19;9.03;;;1.32;;
32106;SDS011;18622;51.998;10.440;2023-11-19T06:23:47;9.07;;;1.53;;
32106;SDS011;18622;51.998;10.440;2023-11-19T06:26:15;7.77;;;1.57;;
32106;SDS011;18622;51.998;10.440;2023-11-19T06:28:43;6.57;;;2.07;;
32106;SDS011;18622;51.998;10.440;2023-11-19T06:31:10;4.50;;;0.80;;
32106;SDS011;18622;51.998;10.440;2023-11-19T06:33:40;4.42;;;1.10;;
32106;SDS011;18622;51.998;10.440;2023-11-19T06:36:08;6.57;;;0.73;;
32106;SDS011;18622;51.998;10.440;2023-11-19T06:38:36;6.00;;;1.07;;
32106;SDS011;18622;51.998;10.440;2023-11-19T06:41:06;5.90;;;1.40;;
32106;SDS011;18622;51.998;10.440;2023-11-19T06:43:35;4.92;;;1.10;;
32106;SDS011;18622;51.998;10.440;2023-11-19T06:46:03;7.22;;;1.35;;
32106;SDS011;18622;51.998;10.440;2023-11-19T06:48:32;3.12;;;0.95;;
32106;SDS011;18622;51.998;10.440;2023-11-19T06:51:00;6.07;;;1.37;;
32106;SDS011;18622;51.998;10.440;2023-11-19T06:53:30;12.28;;;1.37;;
32106;SDS011;18622;51.998;10.440;2023-11-19T06:55:58;6.77;;;1.43;;
32106;SDS011;18622;51.998;10.440;2023-11-19T06:58:26;5.08;;;1.37;;
32106;SDS011;18622;51.998;10.440;2023-11-19T07:00:54;7.87;;;1.53;;
32106;SDS011;18622;51.998;10.440;2023-11-19T07:03:22;6.17;;;1.10;;
32106;SDS011;18622;51.998;10.440;2023-11-19T07:05:49;2.53;;;1.47;;
32106;SDS011;18622;51.998;10.440;2023-11-19T07:08:17;3.50;;;0.97;;
32106;SDS011;18622;51.998;10.440;2023-11-19T07:10:45;6.30;;;1.13;;
32106;SDS011;18622;51.998;10.440;2023-11-19T07:13:13;4.20;;;1.20;;
32106;SDS011;18622;51.998;10.440;2023-11-19T07:15:41;7.40;;;1.33;;
32106;SDS011;18622;51.998;10.440;2023-11-19T07:18:09;7.60;;;1.87;;
32106;SDS011;18622;51.998;10.440;2023-11-19T07:20:37;9.33;;;2.72;;
32106;SDS011;18622;51.998;10.440;2023-11-19T07:23:05;10.43;;;1.70;;
32106;SDS011;18622;51.998;10.440;2023-11-19T07:25:34;5.83;;;2.15;;
32106;SDS011;18622;51.998;10.440;2023-11-19T07:28:02;4.80;;;1.30;;
32106;SDS011;18622;51.998;10.440;2023-11-19T07:30:30;8.50;;;2.70;;
32106;SDS011;18622;51.998;10.440;2023-11-19T07:32:58;9.57;;;1.97;;
32106;SDS011;18622;51.998;10.440;2023-11-19T07:35:26;10.03;;;1.50;;
32106;SDS011;18622;51.998;10.440;2023-11-19T07:37:56;13.90;;;1.90;;
32106;SDS011;18622;51.998;10.440;2023-11-19T07:40:24;9.77;;;1.47;;
32106;SDS011;18622;51.998;10.440;2023-11-19T07:42:52;8.83;;;2.00;;
32106;SDS011;18622;51.998;10.440;2023-11-19T07:45:20;8.77;;;2.23;;
32106;SDS011;18622;51.998;10.440;2023-11-19T07:47:47;10.70;;;2.43;;
32106;SDS011;18622;51.998;10.440;2023-11-19T07:50:17;17.48;;;2.12;;
32106;SDS011;18622;51.998;10.440;2023-11-19T07:52:46;12.20;;;2.22;;
32106;SDS011;18622;51.998;10.440;2023-11-19T07:55:13;12.90;;;2.03;;
32106;SDS011;18622;51.998;10.440;2023-11-19T07:57:41;10.43;;;1.87;;
32106;SDS011;18622;51.998;10.440;2023-11-19T08:00:09;8.60;;;1.80;;
32106;SDS011;18622;51.998;10.440;2023-11-19T08:02:38;9.88;;;2.15;;
32106;SDS011;18622;51.998;10.440;2023-11-19T08:05:06;17.40;;;2.70;;
32106;SDS011;18622;51.998;10.440;2023-11-19T08:07:34;13.73;;;2.43;;
32106;SDS011;18622;51.998;10.440;2023-11-19T08:10:02;11.17;;;2.07;;
32106;SDS011;18622;51.998;10.440;2023-11-19T08:12:31;17.57;;;2.22;;
32106;SDS011;18622;51.998;10.440;2023-11-19T08:15:00;14.63;;;2.58;;
32106;SDS011;18622;51.998;10.440;2023-11-19T08:17:28;11.95;;;2.47;;
32106;SDS011;18622;51.998;10.440;2023-11-19T08:19:56;15.43;;;2.87;;
32106;SDS011;18622;51.998;10.440;2023-11-19T08:22:26;13.55;;;2.58;;
32106;SDS011;18622;51.998;10.440;2023-11-19T08:24:53;18.53;;;3.80;;
32106;SDS011;18622;51.998;10.440;2023-11-19T08:27:21;12.37;;;3.00;;
32106;SDS011;18622;51.998;10.440;2023-11-19T08:29:51;17.15;;;4.00;;
32106;SDS011;18622;51.998;10.440;2023-11-19T08:32:27;14.70;;;2.85;;
32106;SDS011;18622;51.998;10.440;2023-11-19T08:34:52;17.95;;;4.50;;
32106;SDS011;18622;51.998;10.440;2023-11-19T08:37:20;20.90;;;3.12;;
32106;SDS011;18622;51.998;10.440;2023-11-19T08:39:48;19.10;;;4.63;;
32106;SDS011;18622;51.998;10.440;2023-11-19T08:42:16;18.62;;;4.17;;
32106;SDS011;18622;51.998;10.440;2023-11-19T08:44:48;19.20;;;3.53;;
32106;SDS011;18622;51.998;10.440;2023-11-19T08:47:16;17.53;;;3.83;;
32106;SDS011;18622;51.998;10.440;2023-11-19T08:49:44;21.23;;;4.30;;
32106;SDS011;18622;51.998;10.440;2023-11-19T08:52:12;18.00;;;3.15;;
32106;SDS011;18622;51.998;10.440;2023-11-19T08:54:43;16.83;;;3.63;;
32106;SDS011;18622;51.998;10.440;2023-11-19T08:57:10;19.73;;;3.83;;
32106;SDS011;18622;51.998;10.440;2023-11-19T08:59:38;24.10;;;3.93;;
32106;SDS011;18622;51.998;10.440;2023-11-19T09:02:06;20.03;;;3.73;;
32106;SDS011;18622;51.998;10.440;2023-11-19T09:04:35;19.60;;;3.87;;
32106;SDS011;18622;51.998;10.440;2023-11-19T09:07:03;20.20;;;4.00;;
32106;SDS011;18622;51.998;10.440;2023-11-19T09:09:31;21.43;;;4.03;;
32106;SDS011;18622;51.998;10.440;2023-11-19T09:12:01;14.97;;;3.83;;
32106;SDS011;18622;51.998;10.440;2023-11-19T09:14:29;20.17;;;4.28;;
32106;SDS011;18622;51.998;10.440;2023-11-19T09:16:57;17.73;;;3.43;;
32106;SDS011;18622;51.998;10.440;2023-11-19T09:19:25;15.68;;;3.15;;
32106;SDS011;18622;51.998;10.440;2023-11-19T09:21:53;24.30;;;4.40;;
32106;SDS011;18622;51.998;10.440;2023-11-19T09:24:21;22.60;;;4.17;;
32106;SDS011;18622;51.998;10.440;2023-11-19T09:26:49;18.93;;;3.77;;
32106;SDS011;18622;51.998;10.440;2023-11-19T09:29:17;26.47;;;4.23;;
32106;SDS011;18622;51.998;10.440;2023-11-19T09:31:45;18.15;;;3.60;;
32106;SDS011;18622;51.998;10.440;2023-11-19T09:34:13;21.87;;;4.10;;
32106;SDS011;18622;51.998;10.440;2023-11-19T09:36:41;18.97;;;4.17;;
32106;SDS011;18622;51.998;10.440;2023-11-19T09:39:10;17.42;;;4.05;;
32106;SDS011;18622;51.998;10.440;2023-11-19T09:41:44;22.50;;;4.27;;
32106;SDS011;18622;51.998;10.440;2023-11-19T09:44:13;20.92;;;4.60;;
32106;SDS011;18622;51.998;10.440;2023-11-19T09:46:42;19.10;;;3.12;;
32106;SDS011;18622;51.998;10.440;2023-11-19T09:49:12;15.90;;;3.58;;
32106;SDS011;18622;51.998;10.440;2023-11-19T09:51:41;19.73;;;4.22;;
32106;SDS011;18622;51.998;10.440;2023-11-19T09:54:08;17.43;;;3.90;;
32106;SDS011;18622;51.998;10.440;2023-11-19T09:56:38;17.48;;;3.75;;
32106;SDS011;18622;51.998;10.440;2023-11-19T09:59:07;21.20;;;3.75;;
32106;SDS011;18622;51.998;10.440;2023-11-19T10:01:37;15.88;;;4.00;;
32106;SDS011;18622;51.998;10.440;2023-11-19T10:04:05;21.55;;;4.22;;
32106;SDS011;18622;51.998;10.440;2023-11-19T10:06:33;21.50;;;4.35;;
32106;SDS011;18622;51.998;10.440;2023-11-19T10:09:01;19.07;;;3.77;;
32106;SDS011;18622;51.998;10.440;2023-11-19T10:11:30;16.90;;;3.67;;
32106;SDS011;18622;51.998;10.440;2023-11-19T10:13:59;17.60;;;3.73;;
32106;SDS011;18622;51.998;10.440;2023-11-19T10:16:29;26.23;;;3.72;;
32106;SDS011;18622;51.998;10.440;2023-11-19T10:18:57;14.18;;;3.30;;
32106;SDS011;18622;51.998;10.440;2023-11-19T10:21:25;15.33;;;2.97;;
32106;SDS011;18622;51.998;10.440;2023-11-19T10:23:56;17.90;;;3.67;;
32106;SDS011;18622;51.998;10.440;2023-11-19T10:26:26;18.42;;;4.25;;
32106;SDS011;18622;51.998;10.440;2023-11-19T10:28:55;17.25;;;4.67;;
32106;SDS011;18622;51.998;10.440;2023-11-19T10:31:23;21.93;;;4.65;;
32106;SDS011;18622;51.998;10.440;2023-11-19T10:33:52;20.37;;;5.08;;
32106;SDS011;18622;51.998;10.440;2023-11-19T10:36:20;24.67;;;5.57;;
32106;SDS011;18622;51.998;10.440;2023-11-19T10:38:52;28.70;;;9.50;;
32106;SDS011;18622;51.998;10.440;2023-11-19T10:41:32;29.63;;;5.27;;
32106;SDS011;18622;51.998;10.440;2023-11-19T10:43:58;18.97;;;4.27;;
32106;SDS011;18622;51.998;10.440;2023-11-19T10:46:38;20.60;;;5.42;;
32106;SDS011;18622;51.998;10.440;2023-11-19T10:49:09;15.07;;;3.87;;
32106;SDS011;18622;51.998;10.440;2023-11-19T10:51:37;21.25;;;4.15;;
32106;SDS011;18622;51.998;10.440;2023-11-19T10:54:08;16.55;;;4.20;;
32106;SDS011;18622;51.998;10.440;2023-11-19T10:56:36;24.27;;;5.67;;
32106;SDS011;18622;51.998;10.440;2023-11-19T10:59:04;23.20;;;3.90;;
32106;SDS011;18622;51.998;10.440;2023-11-19T11:01:39;13.68;;;3.58;;
32106;SDS011;18622;51.998;10.440;2023-11-19T11:04:10;18.63;;;3.63;;
32106;SDS011;18622;51.998;10.440;2023-11-19T11:06:43;15.73;;;3.23;;
32106;SDS011;18622;51.998;10.440;2023-11-19T11:09:12;17.73;;;3.62;;
32106;SDS011;18622;51.998;10.440;2023-11-19T11:11:41;13.55;;;3.62;;
32106;SDS011;18622;51.998;10.440;2023-11-19T11:14:13;18.77;;;3.47;;
32106;SDS011;18622;51.998;10.440;2023-11-19T11:16:43;18.90;;;4.50;;
32106;SDS011;18622;51.998;10.440;2023-11-19T11:19:11;18.45;;;3.42;;
32106;SDS011;18622;51.998;10.440;2023-11-19T11:21:40;17.53;;;4.10;;
32106;SDS011;18622;51.998;10.440;2023-11-19T11:27:06;22.10;;;3.70;;
32106;SDS011;18622;51.998;10.440;2023-11-19T11:32:50;20.65;;;4.60;;
32106;SDS011;18622;51.998;10.440;2023-11-19T11:35:08;15.70;;;3.93;;
32106;SDS011;18622;51.998;10.440;2023-11-19T11:37:55;14.67;;;3.20;;
32106;SDS011;18622;51.998;10.440;2023-11-19T11:40:19;19.00;;;3.70;;
32106;SDS011;18622;51.998;10.440;2023-11-19T11:42:50;17.50;;;3.62;;
32106;SDS011;18622;51.998;10.440;2023-11-19T11:45:18;13.43;;;3.10;;
32106;SDS011;18622;51.998;10.440;2023-11-19T11:50:25;16.53;;;3.90;;
32106;SDS011;18622;51.998;10.440;2023-11-19T11:58:22;13.67;;;3.03;;
32106;SDS011;18622;51.998;10.440;2023-11-19T12:01:00;13.80;;;3.33;;
32106;SDS011;18622;51.998;10.440;2023-11-19T12:03:31;16.97;;;3.40;;
32106;SDS011;18622;51.998;10.440;2023-11-19T12:05:59;16.30;;;4.10;;
32106;SDS011;18622;51.998;10.440;2023-11-19T12:08:28;16.97;;;3.10;;
32106;SDS011;18622;51.998;10.440;2023-11-19T12:10:57;15.93;;;3.37;;
32106;SDS011;18622;51.998;10.440;2023-11-19T12:13:44;16.30;;;4.17;;
32106;SDS011;18622;51.998;10.440;2023-11-19T12:16:15;15.90;;;3.97;;
32106;SDS011;18622;51.998;10.440;2023-11-19T12:18:43;21.53;;;3.87;;
32106;SDS011;18622;51.998;10.440;2023-11-19T12:21:11;12.90;;;3.83;;
32106;SDS011;18622;51.998;10.440;2023-11-19T12:23:46;16.80;;;3.47;;
32106;SDS011;18622;51.998;10.440;2023-11-19T12:26:33;14.57;;;4.20;;
32106;SDS011;18622;51.998;10.440;2023-11-19T12:29:02;18.65;;;4.05;;
32106;SDS011;18622;51.998;10.440;2023-11-19T12:31:31;12.30;;;3.12;;
32106;SDS011;18622;51.998;10.440;2023-11-19T12:34:01;17.17;;;3.62;;
32106;SDS011;18622;51.998;10.440;2023-11-19T12:36:35;14.90;;;3.47;;
32106;SDS011;18622;51.998;10.440;2023-11-19T12:39:03;14.53;;;4.20;;
32106;SDS011;18622;51.998;10.440;2023-11-19T12:41:31;18.17;;;4.17;;
32106;SDS011;18622;51.998;10.440;2023-11-19T12:44:10;14.93;;;4.08;;
32106;SDS011;18622;51.998;10.440;2023-11-19T12:46:38;19.93;;;3.97;;
32106;SDS011;18622;51.998;10.440;2023-11-19T12:49:06;19.67;;;4.03;;
32106;SDS011;18622;51.998;10.440;2023-11-19T12:51:33;14.17;;;3.20;;
32106;SDS011;18622;51.998;10.440;2023-11-19T12:54:01;20.43;;;3.80;;
32106;SDS011;18622;51.998;10.440;2023-11-19T12:56:30;11.20;;;2.83;;
32106;SDS011;18622;51.998;10.440;2023-11-19T12:59:09;19.50;;;3.60;;
32106;SDS011;18622;51.998;10.440;2023-11-19T13:01:29;14.85;;;3.47;;
32106;SDS011;18622;51.998;10.440;2023-11-19T13:03:57;17.40;;;4.00;;
32106;SDS011;18622;51.998;10.440;2023-11-19T13:06:24;19.63;;;3.63;;
32106;SDS011;18622;51.998;10.440;2023-11-19T13:08:52;16.33;;;3.23;;
32106;SDS011;18622;51.998;10.440;2023-11-19T13:11:30;12.47;;;3.25;;
32106;SDS011;18622;51.998;10.440;2023-11-19T13:14:01;16.17;;;3.52;;
32106;SDS011;18622;51.998;10.440;2023-11-19T13:16:37;19.97;;;3.80;;
32106;SDS011;18622;51.998;10.440;2023-11-19T13:19:05;21.07;;;4.03;;
32106;SDS011;18622;51.998;10.440;2023-11-19T13:21:34;19.93;;;3.63;;
32106;SDS011;18622;51.998;10.440;2023-11-19T13:24:02;17.85;;;4.25;;
32106;SDS011;18622;51.998;10.440;2023-11-19T13:26:31;24.92;;;3.87;;
32106;SDS011;18622;51.998;10.440;2023-11-19T13:28:59;17.20;;;3.60;;
32106;SDS011;18622;51.998;10.440;2023-11-19T13:31:27;19.17;;;3.83;;
32106;SDS011;18622;51.998;10.440;2023-11-19T13:33:55;26.03;;;4.50;;
32106;SDS011;18622;51.998;10.440;2023-11-19T13:36:24;26.73;;;4.50;;
32106;SDS011;18622;51.998;10.440;2023-11-19T13:38:52;21.70;;;3.77;;
32106;SDS011;18622;51.998;10.440;2023-11-19T13:41:21;24.12;;;4.55;;
32106;SDS011;18622;51.998;10.440;2023-11-19T13:43:50;24.93;;;4.27;;
32106;SDS011;18622;51.998;10.440;2023-11-19T13:46:17;24.10;;;3.67;;
32106;SDS011;18622;51.998;10.440;2023-11-19T13:48:45;18.82;;;4.15;;
32106;SDS011;18622;51.998;10.440;2023-11-19T13:51:15;23.98;;;4.65;;
32106;SDS011;18622;51.998;10.440;2023-11-19T13:53:43;27.30;;;10.23;;
32106;SDS011;18622;51.998;10.440;2023-11-19T13:56:11;22.53;;;4.53;;
32106;SDS011;18622;51.998;10.440;2023-11-19T13:58:38;21.40;;;5.43;;
32106;SDS011;18622;51.998;10.440;2023-11-19T14:01:06;20.93;;;4.03;;
32106;SDS011;18622;51.998;10.440;2023-11-19T14:03:34;22.27;;;3.77;;
32106;SDS011;18622;51.998;10.440;2023-11-19T14:06:02;17.70;;;4.10;;
32106;SDS011;18622;51.998;10.440;2023-11-19T14:08:30;21.20;;;4.77;;
32106;SDS011;18622;51.998;10.440;2023-11-19T14:10:57;20.57;;;4.07;;
32106;SDS011;18622;51.998;10.440;2023-11-19T14:13:26;24.97;;;5.03;;
32106;SDS011;18622;51.998;10.440;2023-11-19T14:15:53;20.63;;;4.23;;
32106;SDS011;18622;51.998;10.440;2023-11-19T14:18:21;18.77;;;3.47;;
32106;SDS011;18622;51.998;10.440;2023-11-19T14:20:49;17.03;;;2.87;;
32106;SDS011;18622;51.998;10.440;2023-11-19T14:23:17;15.03;;;3.47;;
32106;SDS011;18622;51.998;10.440;2023-11-19T14:25:45;23.13;;;4.20;;
32106;SDS011;18622;51.998;10.440;2023-11-19T14:28:12;18.63;;;3.93;;
32106;SDS011;18622;51.998;10.440;2023-11-19T14:30:40;20.00;;;4.30;;
32106;SDS011;18622;51.998;10.440;2023-11-19T14:33:08;21.20;;;3.97;;
32106;SDS011;18622;51.998;10.440;2023-11-19T14:35:36;19.67;;;3.60;;
32106;SDS011;18622;51.998;10.440;2023-11-19T14:38:04;17.27;;;3.27;;
32106;SDS011;18622;51.998;10.440;2023-11-19T14:40:33;26.65;;;4.50;;
32106;SDS011;18622;51.998;10.440;2023-11-19T14:43:01;19.43;;;3.70;;
32106;SDS011;18622;51.998;10.440;2023-11-19T14:45:29;16.53;;;3.20;;
32106;SDS011;18622;51.998;10.440;2023-11-19T14:47:57;24.73;;;4.37;;
32106;SDS011;18622;51.998;10.440;2023-11-19T14:50:25;18.87;;;3.63;;
32106;SDS011;18622;51.998;10.440;2023-11-19T14:52:52;20.97;;;3.47;;
32106;SDS011;18622;51.998;10.440;2023-11-19T14:55:20;21.73;;;4.57;;
32106;SDS011;18622;51.998;10.440;2023-11-19T14:57:48;21.97;;;4.43;;
32106;SDS011;18622;51.998;10.440;2023-11-19T15:00:17;27.22;;;4.60;;
32106;SDS011;18622;51.998;10.440;2023-11-19T15:02:45;16.03;;;3.73;;
32106;SDS011;18622;51.998;10.440;2023-11-19T15:05:12;27.27;;;5.00;;
32106;SDS011;18622;51.998;10.440;2023-11-19T15:07:40;20.27;;;3.90;;
32106;SDS011;18622;51.998;10.440;2023-11-19T15:10:08;21.40;;;3.97;;
32106;SDS011;18622;51.998;10.440;2023-11-19T15:12:38;29.10;;;4.42;;
32106;SDS011;18622;51.998;10.440;2023-11-19T15:15:10;21.57;;;4.25;;
32106;SDS011;18622;51.998;10.440;2023-11-19T15:17:39;30.25;;;5.28;;
32106;SDS011;18622;51.998;10.440;2023-11-19T15:20:07;22.20;;;4.40;;
32106;SDS011;18622;51.998;10.440;2023-11-19T15:22:35;21.87;;;4.47;;
32106;SDS011;18622;51.998;10.440;2023-11-19T15:25:03;20.83;;;3.33;;
32106;SDS011;18622;51.998;10.440;2023-11-19T15:30:11;17.47;;;3.57;;
32106;SDS011;18622;51.998;10.440;2023-11-19T15:32:39;23.80;;;3.20;;
32106;SDS011;18622;51.998;10.440;2023-11-19T15:35:08;20.33;;;3.00;;
32106;SDS011;18622;51.998;10.440;2023-11-19T15:37:36;12.98;;;2.85;;
32106;SDS011;18622;51.998;10.440;2023-11-19T15:40:06;21.17;;;3.15;;
32106;SDS011;18622;51.998;10.440;2023-11-19T15:42:35;17.33;;;3.33;;
32106;SDS011;18622;51.998;10.440;2023-11-19T15:45:03;16.67;;;3.20;;
32106;SDS011;18622;51.998;10.440;2023-11-19T15:47:32;23.32;;;4.83;;
32106;SDS011;18622;51.998;10.440;2023-11-19T15:50:09;12.73;;;3.17;;
32106;SDS011;18622;51.998;10.440;2023-11-19T15:52:35;17.30;;;2.50;;
32106;SDS011;18622;51.998;10.440;2023-11-19T15:55:04;24.90;;;3.50;;
32106;SDS011;18622;51.998;10.440;2023-11-19T15:57:32;17.77;;;3.53;;
32106;SDS011;18622;51.998;10.440;2023-11-19T16:00:00;13.50;;;2.80;;
32106;SDS011;18622;51.998;10.440;2023-11-19T16:02:28;13.57;;;3.17;;
32106;SDS011;18622;51.998;10.440;2023-11-19T16:04:55;18.47;;;3.10;;
32106;SDS011;18622;51.998;10.440;2023-11-19T16:07:23;19.77;;;2.60;;
32106;SDS011;18622;51.998;10.440;2023-11-19T16:09:51;26.30;;;3.80;;
32106;SDS011;18622;51.998;10.440;2023-11-19T16:12:19;14.57;;;2.97;;
32106;SDS011;18622;51.998;10.440;2023-11-19T16:14:47;21.20;;;3.70;;
32106;SDS011;18622;51.998;10.440;2023-11-19T16:17:14;17.70;;;3.07;;
32106;SDS011;18622;51.998;10.440;2023-11-19T16:19:42;19.43;;;3.30;;
32106;SDS011;18622;51.998;10.440;2023-11-19T16:22:10;18.00;;;2.87;;
32106;SDS011;18622;51.998;10.440;2023-11-19T16:24:38;12.63;;;2.30;;
32106;SDS011;18622;51.998;10.440;2023-11-19T16:27:06;15.93;;;2.80;;
32106;SDS011;18622;51.998;10.440;2023-11-19T16:29:34;13.97;;;3.03;;
32106;SDS011;18622;51.998;10.440;2023-11-19T16:32:02;15.10;;;2.57;;
32106;SDS011;18622;51.998;10.440;2023-11-19T16:34:30;14.25;;;2.95;;
32106;SDS011;18622;51.998;10.440;2023-11-19T16:36:59;14.00;;;2.95;;
32106;SDS011;18622;51.998;10.440;2023-11-19T16:39:27;12.77;;;2.30;;
32106;SDS011;18622;51.998;10.440;2023-11-19T16:41:56;12.55;;;2.45;;
32106;SDS011;18622;51.998;10.440;2023-11-19T16:44:23;11.43;;;3.20;;
32106;SDS011;18622;51.998;10.440;2023-11-19T16:46:52;15.27;;;2.40;;
32106;SDS011;18622;51.998;10.440;2023-11-19T16:49:19;14.27;;;3.00;;
32106;SDS011;18622;51.998;10.440;2023-11-19T16:51:47;13.40;;;2.70;;
32106;SDS011;18622;51.998;10.440;2023-11-19T16:54:16;12.80;;;2.67;;
32106;SDS011;18622;51.998;10.440;2023-11-19T16:56:45;15.68;;;2.52;;
32106;SDS011;18622;51.998;10.440;2023-11-19T16:59:13;13.20;;;3.02;;
32106;SDS011;18622;51.998;10.440;2023-11-19T17:01:41;9.57;;;3.33;;
32106;SDS011;18622;51.998;10.440;2023-11-19T17:04:09;21.25;;;4.20;;
32106;SDS011;18622;51.998;10.440;2023-11-19T17:06:38;19.30;;;4.10;;
32106;SDS011;18622;51.998;10.440;2023-11-19T17:09:06;13.70;;;2.60;;
32106;SDS011;18622;51.998;10.440;2023-11-19T17:11:36;15.90;;;5.50;;
32106;SDS011;18622;51.998;10.440;2023-11-19T17:14:03;13.63;;;3.03;;
32106;SDS011;18622;51.998;10.440;2023-11-19T17:16:31;15.65;;;4.25;;
32106;SDS011;18622;51.998;10.440;2023-11-19T17:18:59;15.63;;;3.27;;
32106;SDS011;18622;51.998;10.440;2023-11-19T17:21:27;14.57;;;3.97;;
32106;SDS011;18622;51.998;10.440;2023-11-19T17:23:55;18.03;;;3.10;;
32106;SDS011;18622;51.998;10.440;2023-11-19T17:26:23;19.00;;;3.90;;
32106;SDS011;18622;51.998;10.440;2023-11-19T17:28:50;11.90;;;2.67;;
32106;SDS011;18622;51.998;10.440;2023-11-19T17:31:19;13.05;;;2.92;;
32106;SDS011;18622;51.998;10.440;2023-11-19T17:33:46;13.73;;;3.10;;
32106;SDS011;18622;51.998;10.440;2023-11-19T17:36:14;17.13;;;3.43;;
32106;SDS011;18622;51.998;10.440;2023-11-19T17:38:42;16.45;;;2.87;;
32106;SDS011;18622;51.998;10.440;2023-11-19T17:41:10;14.67;;;3.10;;
32106;SDS011;18622;51.998;10.440;2023-11-19T17:43:38;16.73;;;2.83;;
32106;SDS011;18622;51.998;10.440;2023-11-19T17:46:06;17.23;;;3.17;;
32106;SDS011;18622;51.998;10.440;2023-11-19T17:48:34;14.07;;;2.60;;
32106;SDS011;18622;51.998;10.440;2023-11-19T17:51:01;20.20;;;3.87;;
32106;SDS011;18622;51.998;10.440;2023-11-19T17:53:30;20.85;;;3.02;;
32106;SDS011;18622;51.998;10.440;2023-11-19T17:55:58;21.83;;;3.27;;
32106;SDS011;18622;51.998;10.440;2023-11-19T17:58:26;16.97;;;3.90;;
32106;SDS011;18622;51.998;10.440;2023-11-19T18:00:53;18.70;;;3.43;;
32106;SDS011;18622;51.998;10.440;2023-11-19T18:03:22;18.67;;;3.20;;
32106;SDS011;18622;51.998;10.440;2023-11-19T18:05:50;17.00;;;3.13;;
32106;SDS011;18622;51.998;10.440;2023-11-19T18:08:18;18.75;;;3.15;;
32106;SDS011;18622;51.998;10.440;2023-11-19T18:10:48;17.35;;;3.42;;
32106;SDS011;18622;51.998;10.440;2023-11-19T18:13:16;17.70;;;3.30;;
32106;SDS011;18622;51.998;10.440;2023-11-19T18:15:44;16.63;;;3.67;;
32106;SDS011;18622;51.998;10.440;2023-11-19T18:18:12;19.13;;;3.47;;
32106;SDS011;18622;51.998;10.440;2023-11-19T18:20:40;14.33;;;3.23;;
32106;SDS011;18622;51.998;10.440;2023-11-19T18:23:08;15.47;;;2.57;;
32106;SDS011;18622;51.998;10.440;2023-11-19T18:25:35;17.23;;;3.33;;
32106;SDS011;18622;51.998;10.440;2023-11-19T18:28:03;17.93;;;2.83;;
32106;SDS011;18622;51.998;10.440;2023-11-19T18:30:31;17.77;;;2.92;;
32106;SDS011;18622;51.998;10.440;2023-11-19T18:32:59;19.03;;;3.33;;
32106;SDS011;18622;51.998;10.440;2023-11-19T18:35:27;18.53;;;3.50;;
32106;SDS011;18622;51.998;10.440;2023-11-19T18:37:55;17.60;;;3.00;;
32106;SDS011;18622;51.998;10.440;2023-11-19T18:40:23;17.57;;;3.27;;
32106;SDS011;18622;51.998;10.440;2023-11-19T18:42:51;17.65;;;3.40;;
32106;SDS011;18622;51.998;10.440;2023-11-19T18:45:19;14.67;;;2.67;;
32106;SDS011;18622;51.998;10.440;2023-11-19T18:47:47;13.88;;;2.75;;
32106;SDS011;18622;51.998;10.440;2023-11-19T18:50:17;40.55;;;11.25;;
32106;SDS011;18622;51.998;10.440;2023-11-19T18:52:46;24.60;;;7.87;;
32106;SDS011;18622;51.998;10.440;2023-11-19T18:55:14;19.47;;;3.40;;
32106;SDS011;18622;51.998;10.440;2023-11-19T18:57:42;11.67;;;2.67;;
32106;SDS011;18622;51.998;10.440;2023-11-19T19:00:10;16.23;;;2.63;;
32106;SDS011;18622;51.998;10.440;2023-11-19T19:02:39;19.05;;;2.77;;
32106;SDS011;18622;51.998;10.440;2023-11-19T19:05:07;21.13;;;3.17;;
32106;SDS011;18622;51.998;10.440;2023-11-19T19:07:35;16.63;;;2.47;;
32106;SDS011;18622;51.998;10.440;2023-11-19T19:10:03;20.10;;;3.33;;
32106;SDS011;18622;51.998;10.440;2023-11-19T19:15:00;13.98;;;2.85;;
32106;SDS011;18622;51.998;10.440;2023-11-19T19:17:28;18.70;;;2.60;;
32106;SDS011;18622;51.998;10.440;2023-11-19T19:19:56;15.90;;;3.00;;
32106;SDS011;18622;51.998;10.440;2023-11-19T19:22:24;14.57;;;2.43;;
32106;SDS011;18622;51.998;10.440;2023-11-19T19:24:52;12.70;;;2.20;;